createdAt,value
2017-10-26T00:00:18.851Z,10.23
2017-10-26T00:02:46.333Z,7.23
2017-10-26T00:05:13.804Z,8.70
2017-10-26T00:07:41.271Z,8.20
2017-10-26T00:10:08.754Z,9.40
2017-10-26T00:12:36.235Z,8.27
2017-10-26T00:15:04.050Z,8.87
2017-10-26T00:17:31.507Z,9.17
2017-10-26T00:19:58.967Z,8.37
2017-10-26T00:22:26.443Z,6.43
2017-10-26T00:24:53.934Z,8.30
2017-10-26T00:27:21.684Z,8.80
2017-10-26T00:29:49.188Z,7.87
2017-10-26T00:32:16.645Z,6.73
2017-10-26T00:34:44.097Z,6.20
2017-10-26T00:37:11.559Z,6.30
2017-10-26T00:39:39.025Z,6.67
2017-10-26T00:42:06.490Z,7.13
2017-10-26T00:44:33.967Z,6.70
2017-10-26T00:47:01.422Z,6.20
2017-10-26T00:49:29.648Z,6.60
2017-10-26T00:51:57.101Z,6.50
2017-10-26T00:54:24.621Z,9.00
2017-10-26T00:56:52.839Z,9.47
2017-10-26T00:59:20.317Z,11.53
2017-10-26T01:01:47.782Z,10.13
2017-10-26T01:04:15.240Z,10.23
2017-10-26T01:06:42.735Z,11.40
2017-10-26T01:09:10.255Z,10.60
2017-10-26T01:11:37.726Z,11.23
2017-10-26T01:14:05.208Z,11.90
2017-10-26T01:16:32.684Z,15.87
2017-10-26T01:19:00.190Z,13.53
2017-10-26T01:21:27.666Z,12.30
2017-10-26T01:23:55.148Z,15.00
2017-10-26T01:26:22.661Z,14.70
2017-10-26T01:28:50.157Z,15.67
2017-10-26T01:31:17.657Z,13.33
2017-10-26T01:33:45.134Z,14.00
2017-10-26T01:36:12.616Z,14.40
2017-10-26T01:38:40.092Z,15.90
2017-10-26T01:41:07.583Z,14.87
2017-10-26T01:43:35.059Z,13.87
2017-10-26T01:46:02.546Z,14.77
2017-10-26T01:48:30.025Z,14.00
2017-10-26T01:50:57.537Z,13.70
2017-10-26T01:53:25.020Z,13.83
2017-10-26T01:55:52.497Z,14.47
2017-10-26T01:58:20.008Z,12.33
2017-10-26T02:00:47.487Z,12.37
2017-10-26T02:03:14.965Z,12.97
2017-10-26T02:05:42.450Z,16.17
2017-10-26T02:08:09.920Z,17.30
2017-10-26T02:10:37.414Z,14.50
2017-10-26T02:13:04.884Z,15.00
2017-10-26T02:15:32.388Z,15.27
2017-10-26T02:17:59.861Z,18.57
2017-10-26T02:20:27.345Z,17.80
2017-10-26T02:22:55.571Z,16.50
2017-10-26T02:25:23.052Z,24.43
2017-10-26T02:27:50.548Z,17.73
2017-10-26T02:30:30.049Z,16.30
2017-10-26T02:32:57.511Z,18.57
2017-10-26T02:35:24.993Z,20.37
2017-10-26T02:37:52.506Z,15.97
2017-10-26T02:40:20.003Z,15.73
2017-10-26T02:42:47.515Z,11.90
2017-10-26T02:45:14.990Z,13.57
2017-10-26T02:47:42.493Z,14.23
2017-10-26T02:50:09.971Z,15.60
2017-10-26T02:52:37.465Z,13.57
2017-10-26T02:55:04.931Z,16.37
2017-10-26T02:57:32.405Z,15.53
2017-10-26T02:59:59.886Z,13.97
2017-10-26T03:02:27.376Z,14.87
2017-10-26T03:04:54.854Z,16.27
2017-10-26T03:07:22.358Z,12.03
2017-10-26T03:09:49.875Z,15.50
2017-10-26T03:12:17.321Z,12.97
2017-10-26T03:14:45.609Z,12.27
2017-10-26T03:17:13.117Z,11.07
2017-10-26T03:19:40.623Z,11.63
2017-10-26T03:22:08.098Z,10.60
2017-10-26T03:24:36.349Z,12.80
2017-10-26T03:27:03.863Z,12.33
2017-10-26T03:29:31.359Z,15.00
2017-10-26T03:31:58.829Z,12.97
2017-10-26T03:34:26.342Z,12.70
2017-10-26T03:36:53.816Z,13.27
2017-10-26T03:39:21.310Z,16.63
2017-10-26T03:41:49.543Z,12.43
2017-10-26T03:44:17.017Z,13.00
2017-10-26T03:46:44.484Z,13.00
2017-10-26T03:49:11.991Z,12.50
2017-10-26T03:51:40.057Z,12.20
2017-10-26T03:54:07.548Z,14.33
2017-10-26T03:56:35.023Z,14.03
2017-10-26T03:59:02.474Z,10.87
2017-10-26T04:01:29.977Z,12.77
2017-10-26T04:03:57.457Z,11.70
2017-10-26T04:06:24.983Z,12.73
2017-10-26T04:08:53.217Z,11.00
2017-10-26T04:11:20.993Z,9.83
2017-10-26T04:13:48.458Z,10.67
2017-10-26T04:16:15.944Z,11.80
2017-10-26T04:18:43.461Z,11.77
2017-10-26T04:21:10.944Z,12.90
2017-10-26T04:23:39.259Z,12.37
2017-10-26T04:26:06.735Z,12.57
2017-10-26T04:28:34.215Z,10.50
2017-10-26T04:31:01.698Z,13.57
2017-10-26T04:33:29.931Z,11.60
2017-10-26T04:35:57.440Z,10.50
2017-10-26T04:38:24.953Z,9.40
2017-10-26T04:40:52.408Z,8.83
2017-10-26T04:43:19.912Z,10.40
2017-10-26T04:45:47.408Z,8.17
2017-10-26T04:48:14.891Z,8.10
2017-10-26T04:50:42.487Z,12.53
2017-10-26T04:53:09.962Z,12.80
2017-10-26T04:55:37.686Z,15.63
2017-10-26T04:58:05.156Z,14.70
2017-10-26T05:00:33.396Z,13.43
2017-10-26T05:03:00.905Z,14.23
2017-10-26T05:05:28.376Z,19.50
2017-10-26T05:07:55.866Z,19.70
2017-10-26T05:10:23.346Z,16.07
2017-10-26T05:12:50.840Z,16.70
2017-10-26T05:15:18.365Z,11.50
2017-10-26T05:17:46.639Z,13.00
2017-10-26T05:20:14.111Z,16.83
2017-10-26T05:22:42.679Z,10.97
2017-10-26T05:25:10.160Z,20.63
2017-10-26T05:27:37.636Z,18.17
2017-10-26T05:30:05.156Z,18.67
2017-10-26T05:32:32.615Z,21.57
2017-10-26T05:35:00.111Z,24.43
2017-10-26T05:37:27.604Z,14.30
2017-10-26T05:39:55.076Z,15.70
2017-10-26T05:42:22.559Z,14.20
2017-10-26T05:44:50.786Z,9.97
2017-10-26T05:47:18.259Z,12.20
2017-10-26T05:49:45.740Z,12.30
2017-10-26T05:52:13.989Z,12.93
2017-10-26T05:54:41.453Z,9.87
2017-10-26T05:57:08.931Z,11.50
2017-10-26T05:59:37.160Z,14.80
2017-10-26T06:02:04.665Z,14.07
2017-10-26T06:04:32.899Z,9.90
2017-10-26T06:07:00.373Z,10.70
2017-10-26T06:09:27.863Z,10.13
2017-10-26T06:11:55.369Z,6.00
2017-10-26T06:14:22.853Z,12.53
2017-10-26T06:16:50.331Z,13.30
2017-10-26T06:19:18.589Z,8.60
2017-10-26T06:21:46.110Z,12.23
2017-10-26T06:24:13.601Z,12.20
2017-10-26T06:26:41.079Z,12.90
2017-10-26T06:29:08.589Z,12.33
2017-10-26T06:31:36.081Z,17.60
2017-10-26T06:34:03.550Z,11.50
2017-10-26T06:36:31.794Z,13.67
2017-10-26T06:38:59.279Z,12.37
2017-10-26T06:41:26.759Z,17.63
2017-10-26T06:43:54.259Z,18.87
2017-10-26T06:46:21.752Z,13.63
2017-10-26T06:48:49.261Z,11.77
2017-10-26T06:51:16.728Z,11.07
2017-10-26T06:53:44.200Z,11.50
2017-10-26T06:56:11.956Z,11.27
2017-10-26T06:58:39.455Z,12.37
2017-10-26T07:01:07.701Z,13.00
2017-10-26T07:03:35.179Z,8.90
2017-10-26T07:06:03.456Z,11.00
2017-10-26T07:08:30.952Z,11.40
2017-10-26T07:10:58.424Z,6.87
2017-10-26T07:13:25.926Z,8.47
2017-10-26T07:15:54.184Z,11.50
2017-10-26T07:18:21.649Z,10.00
2017-10-26T07:20:49.891Z,7.83
2017-10-26T07:23:18.377Z,10.00
2017-10-26T07:25:45.857Z,6.50
2017-10-26T07:28:13.303Z,7.77
2017-10-26T07:30:40.793Z,6.10
2017-10-26T07:33:08.280Z,6.47
2017-10-26T07:35:35.762Z,7.80
2017-10-26T07:38:03.219Z,10.50
2017-10-26T07:40:30.703Z,12.60
2017-10-26T07:42:58.179Z,16.50
2017-10-26T07:45:26.425Z,14.67
2017-10-26T07:47:53.915Z,14.47
2017-10-26T07:50:22.138Z,9.83
2017-10-26T07:52:49.610Z,9.57
2017-10-26T07:55:17.071Z,13.50
2017-10-26T07:57:44.833Z,17.27
2017-10-26T08:00:12.285Z,10.70
2017-10-26T08:02:39.746Z,11.60
2017-10-26T08:05:07.211Z,11.83
2017-10-26T08:07:34.670Z,9.40
2017-10-26T08:10:02.151Z,9.73
2017-10-26T08:12:30.373Z,8.27
2017-10-26T08:14:57.857Z,8.67
2017-10-26T08:17:25.321Z,9.80
2017-10-26T08:19:52.801Z,6.83
2017-10-26T08:22:20.282Z,6.30
2017-10-26T08:24:47.807Z,10.17
2017-10-26T08:27:15.329Z,8.77
2017-10-26T08:29:42.829Z,13.90
2017-10-26T08:32:10.332Z,11.00
2017-10-26T08:34:37.810Z,9.67
2017-10-26T08:37:05.577Z,8.47
2017-10-26T08:39:33.069Z,9.77
2017-10-26T08:42:00.572Z,9.60
2017-10-26T08:44:28.076Z,11.63
2017-10-26T08:46:55.539Z,9.07
2017-10-26T08:49:23.807Z,7.63
2017-10-26T08:51:52.069Z,11.10
2017-10-26T08:54:19.527Z,15.70
2017-10-26T08:56:47.899Z,10.10
2017-10-26T08:59:17.473Z,11.13
2017-10-26T09:01:45.021Z,7.13
2017-10-26T09:04:12.502Z,7.27
2017-10-26T09:06:40.022Z,9.07
2017-10-26T09:09:07.521Z,10.20
2017-10-26T09:11:35.039Z,13.30
2017-10-26T09:14:02.530Z,9.83
2017-10-26T09:16:30.020Z,8.20
2017-10-26T09:18:57.527Z,8.10
2017-10-26T09:21:25.007Z,8.20
2017-10-26T09:23:52.516Z,11.83
2017-10-26T09:26:20.758Z,7.17
2017-10-26T09:28:48.248Z,7.60
2017-10-26T09:31:16.513Z,8.03
2017-10-26T09:33:44.746Z,7.57
2017-10-26T09:36:12.251Z,6.87
2017-10-26T09:38:40.503Z,6.60
2017-10-26T09:41:08.052Z,7.00
2017-10-26T09:43:35.570Z,5.77
2017-10-26T09:46:03.055Z,6.57
2017-10-26T09:48:30.543Z,5.90
2017-10-26T09:50:58.016Z,6.50
2017-10-26T09:53:26.274Z,5.80
2017-10-26T09:55:53.786Z,6.07
2017-10-26T09:58:22.035Z,6.93
2017-10-26T10:00:49.587Z,6.43
2017-10-26T10:03:17.840Z,6.90
2017-10-26T10:05:45.594Z,6.70
2017-10-26T10:08:13.077Z,7.77
2017-10-26T10:10:40.593Z,6.57
2017-10-26T10:13:08.073Z,6.70
2017-10-26T10:15:35.570Z,6.90
2017-10-26T10:18:03.082Z,6.53
2017-10-26T10:20:30.537Z,5.93
2017-10-26T10:22:58.025Z,9.40
2017-10-26T10:25:26.273Z,7.47
2017-10-26T10:27:53.869Z,7.87
2017-10-26T10:30:21.404Z,6.47
2017-10-26T10:32:48.881Z,7.70
2017-10-26T10:35:17.152Z,7.63
2017-10-26T10:37:45.400Z,7.40
2017-10-26T10:40:12.876Z,7.10
2017-10-26T10:42:40.346Z,7.50
2017-10-26T10:45:07.833Z,7.23
2017-10-26T10:47:36.634Z,7.40
2017-10-26T10:50:04.108Z,8.37
2017-10-26T10:52:31.677Z,8.20
2017-10-26T10:54:59.161Z,8.20
2017-10-26T10:57:27.390Z,8.97
2017-10-26T11:00:00.473Z,7.70
2017-10-26T11:02:27.941Z,10.13
2017-10-26T11:04:55.431Z,9.43
2017-10-26T11:07:22.916Z,9.47
2017-10-26T11:09:50.424Z,9.17
2017-10-26T11:12:17.925Z,8.63
2017-10-26T11:14:45.447Z,9.03
2017-10-26T11:17:12.944Z,9.03
2017-10-26T11:19:40.420Z,9.10
2017-10-26T11:22:07.901Z,9.20
2017-10-26T11:24:35.376Z,9.90
2017-10-26T11:27:03.903Z,9.43
2017-10-26T11:29:31.375Z,9.40
2017-10-26T11:31:58.870Z,8.30
2017-10-26T11:34:26.357Z,9.50
2017-10-26T11:36:54.608Z,9.53
2017-10-26T11:39:22.054Z,9.47
2017-10-26T11:41:49.563Z,9.23
2017-10-26T11:44:17.811Z,11.07
2017-10-26T11:46:45.295Z,10.50
2017-10-26T11:49:12.783Z,10.70
2017-10-26T11:51:41.038Z,12.00
2017-10-26T11:54:08.544Z,12.17
2017-10-26T11:56:36.028Z,13.20
2017-10-26T11:59:03.544Z,12.20
2017-10-26T12:01:31.039Z,12.50
2017-10-26T12:03:59.276Z,13.30
2017-10-26T12:06:26.783Z,13.30
2017-10-26T12:08:55.019Z,12.90
2017-10-26T12:11:22.664Z,12.73
2017-10-26T12:13:50.177Z,12.03
2017-10-26T12:16:17.652Z,12.33
2017-10-26T12:18:45.142Z,12.20
2017-10-26T12:21:12.624Z,13.23
2017-10-26T12:23:40.170Z,13.07
2017-10-26T12:26:07.658Z,12.40
2017-10-26T12:28:35.883Z,12.50
2017-10-26T12:31:03.399Z,12.17
2017-10-26T12:33:31.635Z,14.50
2017-10-26T12:35:59.138Z,11.80
2017-10-26T12:38:26.635Z,14.77
2017-10-26T12:40:54.138Z,14.67
2017-10-26T12:43:21.618Z,12.80
2017-10-26T12:45:49.126Z,12.57
2017-10-26T12:48:16.615Z,13.73
2017-10-26T12:50:45.657Z,12.47
2017-10-26T12:53:13.163Z,12.37
2017-10-26T12:55:41.408Z,13.10
2017-10-26T12:58:08.924Z,14.30
2017-10-26T13:00:36.391Z,13.07
2017-10-26T13:03:03.901Z,12.50
2017-10-26T13:05:31.389Z,11.30
2017-10-26T13:07:58.876Z,14.07
2017-10-26T13:10:26.346Z,11.90
2017-10-26T13:12:53.846Z,12.07
2017-10-26T13:15:22.105Z,10.30
2017-10-26T13:17:49.614Z,11.27
2017-10-26T13:20:17.142Z,10.13
2017-10-26T13:22:44.649Z,11.47
2017-10-26T13:25:12.453Z,11.00
2017-10-26T13:27:39.939Z,10.57
2017-10-26T13:30:07.424Z,10.40
2017-10-26T13:32:34.930Z,11.50
2017-10-26T13:35:03.205Z,10.83
2017-10-26T13:37:31.455Z,11.00
2017-10-26T13:39:58.946Z,10.83
2017-10-26T13:42:26.449Z,10.23
2017-10-26T13:44:53.974Z,11.50
2017-10-26T13:47:21.468Z,11.20
2017-10-26T13:49:48.980Z,11.40
2017-10-26T13:52:17.261Z,10.07
2017-10-26T13:54:45.535Z,11.60
2017-10-26T13:57:13.813Z,11.40
2017-10-26T13:59:41.312Z,12.07
2017-10-26T14:02:08.793Z,11.50
2017-10-26T14:04:36.306Z,12.07
2017-10-26T14:07:03.785Z,11.57
2017-10-26T14:09:31.556Z,11.13
2017-10-26T14:11:59.026Z,11.50
2017-10-26T14:14:26.491Z,11.50
2017-10-26T14:16:54.003Z,10.90
2017-10-26T14:19:21.478Z,11.27
2017-10-26T14:21:49.390Z,10.70
2017-10-26T14:24:17.664Z,11.77
2017-10-26T14:26:45.920Z,11.37
2017-10-26T14:29:13.419Z,11.93
2017-10-26T14:31:40.900Z,12.83
2017-10-26T14:34:08.393Z,11.90
2017-10-26T14:36:35.896Z,11.67
2017-10-26T14:39:03.357Z,13.23
2017-10-26T14:41:30.889Z,11.83
2017-10-26T14:43:59.138Z,12.87
2017-10-26T14:46:26.663Z,12.00
2017-10-26T14:48:54.127Z,12.13
2017-10-26T14:51:21.864Z,12.30
2017-10-26T14:53:49.339Z,11.87
2017-10-26T14:58:48.872Z,13.33
2017-10-26T15:01:16.344Z,12.43
2017-10-26T15:03:43.853Z,13.07
2017-10-26T15:06:11.357Z,13.80
2017-10-26T15:08:39.152Z,12.70
2017-10-26T15:11:07.405Z,14.00
2017-10-26T15:13:34.911Z,12.67
2017-10-26T15:16:02.402Z,12.13
2017-10-26T15:18:30.643Z,12.43
2017-10-26T15:20:58.153Z,11.90
2017-10-26T15:23:25.665Z,11.43
2017-10-26T15:25:53.159Z,11.60
2017-10-26T15:28:20.671Z,11.50
2017-10-26T15:30:48.145Z,12.33
2017-10-26T15:33:15.635Z,11.57
2017-10-26T15:35:43.161Z,11.20
2017-10-26T15:38:10.988Z,10.80
2017-10-26T15:40:38.506Z,11.10
2017-10-26T15:43:05.982Z,10.87
2017-10-26T15:45:33.478Z,12.23
2017-10-26T15:48:01.009Z,14.33
2017-10-26T15:50:28.529Z,13.57
2017-10-26T15:52:56.038Z,15.67
2017-10-26T15:55:23.534Z,16.57
2017-10-26T15:57:51.031Z,20.23
2017-10-26T16:00:18.522Z,19.97
2017-10-26T16:02:46.801Z,14.50
2017-10-26T16:05:15.073Z,13.93
2017-10-26T16:07:43.661Z,12.70
2017-10-26T16:10:11.934Z,12.63
2017-10-26T16:12:39.422Z,13.57
2017-10-26T16:15:06.957Z,12.20
2017-10-26T16:17:35.221Z,12.87
2017-10-26T16:20:03.520Z,14.13
2017-10-26T16:22:31.059Z,14.23
2017-10-26T16:24:58.552Z,13.23
2017-10-26T16:27:26.046Z,13.47
2017-10-26T16:29:53.529Z,12.90
2017-10-26T16:32:21.810Z,12.63
2017-10-26T16:34:50.075Z,14.60
2017-10-26T16:37:18.355Z,12.87
2017-10-26T16:39:45.839Z,13.47
2017-10-26T16:42:13.322Z,14.27
2017-10-26T16:44:40.839Z,13.73
2017-10-26T16:47:09.084Z,13.40
2017-10-26T16:49:36.608Z,15.30
2017-10-26T16:52:06.247Z,15.90
2017-10-26T16:54:33.791Z,14.50
2017-10-26T16:57:01.823Z,14.70
2017-10-26T16:59:29.313Z,15.80
2017-10-26T17:01:56.861Z,13.03
2017-10-26T17:04:24.369Z,15.03
2017-10-26T17:06:52.907Z,14.23
2017-10-26T17:09:22.075Z,15.93
2017-10-26T17:11:51.045Z,16.60
2017-10-26T17:14:20.557Z,15.10
2017-10-26T17:16:48.823Z,15.37
2017-10-26T17:19:16.408Z,16.17
2017-10-26T17:21:45.245Z,16.00
2017-10-26T17:24:12.781Z,15.07
2017-10-26T17:26:41.026Z,15.10
2017-10-26T17:29:08.545Z,17.10
2017-10-26T17:31:36.058Z,19.40
2017-10-26T17:34:03.551Z,17.63
2017-10-26T17:36:31.053Z,17.90
2017-10-26T17:38:59.324Z,15.80
2017-10-26T17:41:27.576Z,21.80
2017-10-26T17:43:55.071Z,23.93
2017-10-26T17:46:23.354Z,23.37
2017-10-26T17:48:50.849Z,24.47
2017-10-26T17:51:18.399Z,24.33
2017-10-26T17:53:45.879Z,19.50
2017-10-26T17:56:13.408Z,19.97
2017-10-26T17:58:40.892Z,20.23
2017-10-26T18:01:08.401Z,19.47
2017-10-26T18:03:36.019Z,20.40
2017-10-26T18:06:03.595Z,23.00
2017-10-26T18:08:31.869Z,21.00
2017-10-26T18:11:00.124Z,20.90
2017-10-26T18:13:28.187Z,20.43
2017-10-26T18:15:55.768Z,19.23
2017-10-26T18:18:23.251Z,18.57
2017-10-26T18:23:25.641Z,18.60
2017-10-26T18:25:53.174Z,19.90
2017-10-26T18:28:20.665Z,20.30
2017-10-26T18:30:48.571Z,19.10
2017-10-26T18:33:16.119Z,21.53
2017-10-26T18:35:43.616Z,20.57
2017-10-26T18:38:11.157Z,22.00
2017-10-26T18:40:38.653Z,22.70
2017-10-26T18:43:06.152Z,19.27
2017-10-26T18:45:33.669Z,22.30
2017-10-26T18:48:01.236Z,19.40
2017-10-26T18:50:28.734Z,16.93
2017-10-26T18:52:56.728Z,18.30
2017-10-26T18:55:24.231Z,17.77
2017-10-26T18:57:51.913Z,18.50
2017-10-26T19:00:19.413Z,18.00
2017-10-26T19:02:46.927Z,17.00
2017-10-26T19:05:14.388Z,17.43
2017-10-26T19:07:41.891Z,18.40
2017-10-26T19:10:10.158Z,23.60
2017-10-26T19:12:37.648Z,48.00
2017-10-26T19:15:05.145Z,31.33
2017-10-26T19:17:32.619Z,36.20
2017-10-26T19:20:00.225Z,30.17
2017-10-26T19:22:27.724Z,20.30
2017-10-26T19:24:55.221Z,21.97
2017-10-26T19:27:22.737Z,19.13
2017-10-26T19:29:50.239Z,19.13
2017-10-26T19:32:18.491Z,20.27
2017-10-26T19:34:45.972Z,19.83
2017-10-26T19:37:14.247Z,18.40
2017-10-26T19:39:42.489Z,19.57
2017-10-26T19:42:09.966Z,19.33
2017-10-26T19:44:37.458Z,20.77
2017-10-26T19:47:05.001Z,19.80
2017-10-26T19:49:32.485Z,20.53
2017-10-26T19:52:00.890Z,19.57
2017-10-26T19:54:28.393Z,20.50
2017-10-26T19:56:56.625Z,17.17
2017-10-26T19:59:24.113Z,18.70
2017-10-26T20:01:51.625Z,23.33
2017-10-26T20:04:19.106Z,26.53
2017-10-26T20:06:46.593Z,23.57
2017-10-26T20:09:14.103Z,21.53
2017-10-26T20:11:41.573Z,22.57
2017-10-26T20:14:09.528Z,23.70
2017-10-26T20:16:37.008Z,19.97
2017-10-26T20:19:04.499Z,19.07
2017-10-26T20:21:32.027Z,21.57
2017-10-26T20:23:59.532Z,21.60
2017-10-26T20:26:27.048Z,22.53
2017-10-26T20:28:54.517Z,21.30
2017-10-26T20:31:22.009Z,21.60
2017-10-26T20:33:50.137Z,22.50
2017-10-26T20:36:17.685Z,22.07
2017-10-26T20:38:45.207Z,22.37
2017-10-26T20:41:12.697Z,22.77
2017-10-26T20:43:40.191Z,21.37
2017-10-26T20:46:08.440Z,21.10
2017-10-26T20:48:35.951Z,21.30
2017-10-26T20:51:09.158Z,20.27
2017-10-26T20:53:42.436Z,23.00
2017-10-26T20:56:15.565Z,24.00
2017-10-26T20:58:49.004Z,23.60
2017-10-26T21:01:22.949Z,25.30
2017-10-26T21:03:56.187Z,25.20
2017-10-26T21:06:24.444Z,24.00
2017-10-26T21:08:57.516Z,25.33
2017-10-26T21:11:30.545Z,23.77
2017-10-26T21:14:03.622Z,27.13
2017-10-26T21:16:31.112Z,26.43
2017-10-26T21:18:58.600Z,24.20
2017-10-26T21:21:26.105Z,27.90
2017-10-26T21:23:54.354Z,22.70
2017-10-26T21:26:21.855Z,27.70
2017-10-26T21:28:49.361Z,27.33
2017-10-26T21:31:17.705Z,27.00
2017-10-26T21:33:51.012Z,26.20
2017-10-26T21:36:18.487Z,25.80
2017-10-26T21:38:45.975Z,27.03
2017-10-26T21:41:13.611Z,26.37
2017-10-26T21:43:41.092Z,27.37
2017-10-26T21:46:08.604Z,24.87
2017-10-26T21:48:36.073Z,24.50
2017-10-26T21:51:03.543Z,25.03
2017-10-26T21:53:31.039Z,24.73
2017-10-26T21:55:59.282Z,25.17
2017-10-26T21:58:26.772Z,25.03
2017-10-26T22:00:55.044Z,25.67
2017-10-26T22:03:23.279Z,25.13
2017-10-26T22:05:50.767Z,26.00
2017-10-26T22:08:19.027Z,25.67
2017-10-26T22:10:46.481Z,24.80
2017-10-26T22:13:13.999Z,24.93
2017-10-26T22:15:41.476Z,27.07
2017-10-26T22:18:09.770Z,26.50
2017-10-26T22:20:37.228Z,27.70
2017-10-26T22:23:04.688Z,26.70
2017-10-26T22:25:32.178Z,27.60
2017-10-26T22:27:59.676Z,27.00
2017-10-26T22:30:27.959Z,27.97
2017-10-26T22:32:55.453Z,27.50
2017-10-26T22:35:22.943Z,26.13
2017-10-26T22:37:50.521Z,28.23
2017-10-26T22:40:18.829Z,27.37
2017-10-26T22:42:46.317Z,27.43
2017-10-26T22:45:14.561Z,26.47
2017-10-26T22:47:42.061Z,25.77
2017-10-26T22:50:09.539Z,26.00
2017-10-26T22:52:37.009Z,26.60
2017-10-26T22:55:04.535Z,23.93
2017-10-26T22:57:32.026Z,23.30
2017-10-26T23:00:02.358Z,24.03
2017-10-26T23:02:29.872Z,25.60
2017-10-26T23:04:57.369Z,24.10
2017-10-26T23:07:24.873Z,23.80
2017-10-26T23:09:52.366Z,25.33
2017-10-26T23:12:19.868Z,23.77
2017-10-26T23:14:47.349Z,27.30
2017-10-26T23:17:14.849Z,26.60
2017-10-26T23:19:42.339Z,25.30
2017-10-26T23:22:09.829Z,25.63
2017-10-26T23:24:37.316Z,27.17
2017-10-26T23:27:04.792Z,25.90
2017-10-26T23:29:32.287Z,26.43
2017-10-26T23:31:59.745Z,23.07
2017-10-26T23:34:27.233Z,26.53
2017-10-26T23:36:54.710Z,25.47
2017-10-26T23:39:22.433Z,25.80
2017-10-26T23:41:49.930Z,22.67
2017-10-26T23:44:17.449Z,27.30
2017-10-26T23:46:44.947Z,25.73
2017-10-26T23:49:12.392Z,22.80
2017-10-26T23:51:39.875Z,25.87
2017-10-26T23:54:07.337Z,26.57
2017-10-26T23:56:34.836Z,25.33
2017-10-26T23:59:03.062Z,25.20
